Time;durP1;ratioP1;P1;durP2;ratioP2;P2;SDS_P1;SDS_P2;PMS_P1;PMS_P2;Temp;Humidity;BMP_temperature;BMP_pressure;BME280_temperature;BME280_humidity;BME280_pressure;Samples;Min_cycle;Max_cycle;Signal;HPM_P1;HPM_P2
2022/05/12 00:02:10;;;;;;;4.13;1.30;;;12.50;99.90;;;;;;5007239;28;25061;-71
2022/05/12 00:04:37;;;;;;;6.32;2.22;;;12.50;99.90;;;;;;5010690;28;25174;-69
2022/05/12 00:07:03;;;;;;;9.60;1.88;;;12.40;99.90;;;;;;5008325;28;25138;-70
2022/05/12 00:09:29;;;;;;;11.07;1.80;;;12.50;99.90;;;;;;5005208;28;25062;-71
2022/05/12 00:11:55;;;;;;;10.32;1.98;;;12.40;99.90;;;;;;5005442;28;25070;-71
2022/05/12 00:14:21;;;;;;;9.10;1.80;;;12.40;99.90;;;;;;5004687;28;25127;-72
2022/05/12 00:16:47;;;;;;;7.20;2.22;;;12.40;99.90;;;;;;5005414;28;25055;-70
2022/05/12 00:19:13;;;;;;;5.80;1.90;;;12.40;99.90;;;;;;5004154;28;25075;-71
2022/05/12 00:21:39;;;;;;;22.80;2.38;;;12.50;99.90;;;;;;5004814;28;25112;-72
2022/05/12 00:24:06;;;;;;;4.95;1.75;;;12.40;99.90;;;;;;5003031;28;25131;-72
2022/05/12 00:26:34;;;;;;;3.58;1.70;;;12.40;99.90;;;;;;5006039;28;25071;-70
2022/05/12 00:29:05;;;;;;;5.85;1.85;;;12.30;99.90;;;;;;5005605;28;25060;-71
2022/05/12 00:31:32;;;;;;;5.50;1.67;;;12.30;99.90;;;;;;5005880;28;25146;-71
2022/05/12 00:33:58;;;;;;;5.47;1.65;;;12.30;99.90;;;;;;5006031;28;25140;-72
2022/05/12 00:36:23;;;;;;;4.50;1.50;;;12.30;99.90;;;;;;5006540;28;25086;-74
2022/05/12 00:38:49;;;;;;;7.18;2.15;;;12.30;99.90;;;;;;5005149;28;25100;-70
2022/05/12 00:41:14;;;;;;;6.00;2.40;;;12.30;99.90;;;;;;5003608;28;25103;-69
2022/05/12 00:43:47;;;;;;;4.18;1.48;;;12.30;99.90;;;;;;5005723;28;25053;-69
2022/05/12 00:46:15;;;;;;;3.72;2.22;;;12.20;99.90;;;;;;5003817;28;25109;-68
2022/05/12 00:48:42;;;;;;;6.68;1.92;;;12.30;99.90;;;;;;5003396;28;25156;-71
2022/05/12 00:51:10;;;;;;;5.47;2.35;;;12.30;99.90;;;;;;5004963;28;25054;-70
2022/05/12 00:53:37;;;;;;;4.05;1.90;;;12.20;99.90;;;;;;5004799;28;25068;-71
2022/05/12 00:56:05;;;;;;;6.28;2.00;;;12.30;99.90;;;;;;5014845;28;25070;-74
2022/05/12 00:58:33;;;;;;;12.50;2.33;;;12.20;99.90;;;;;;5008513;28;25169;-70
2022/05/12 01:01:01;;;;;;;9.00;2.20;;;12.20;99.90;;;;;;5006058;28;25055;-70
2022/05/12 01:03:28;;;;;;;8.20;2.03;;;12.10;99.90;;;;;;5003086;28;25089;-71
2022/05/12 01:05:54;;;;;;;8.60;2.63;;;12.10;99.90;;;;;;5005854;28;25097;-73
2022/05/12 01:08:21;;;;;;;6.20;2.20;;;12.10;99.90;;;;;;5003481;28;25055;-70
2022/05/12 01:11:00;;;;;;;5.80;2.35;;;12.10;99.90;;;;;;5004689;28;25089;-69
2022/05/12 01:13:28;;;;;;;10.35;2.65;;;12.10;99.90;;;;;;5002479;28;25070;-71
2022/05/12 01:15:56;;;;;;;10.10;2.05;;;12.10;99.90;;;;;;5005303;28;25055;-71
2022/05/12 01:18:23;;;;;;;7.80;2.22;;;12.00;99.90;;;;;;5006174;28;25074;-69
2022/05/12 01:20:50;;;;;;;7.07;2.13;;;12.00;99.90;;;;;;5008391;28;25094;-72
2022/05/12 01:23:22;;;;;;;4.82;1.80;;;12.00;99.90;;;;;;5008777;28;25094;-70
2022/05/12 01:25:48;;;;;;;;;;;11.90;99.90;;;;;;5009289;28;25097;-70
2022/05/12 01:28:13;;;;;;;6.15;2.50;;;12.00;99.90;;;;;;5006735;28;25072;-70
2022/05/12 01:30:39;;;;;;;5.20;2.08;;;12.00;99.90;;;;;;5006191;28;25197;-70
2022/05/12 01:33:04;;;;;;;8.52;2.60;;;12.00;99.90;;;;;;5006824;28;25054;-71
2022/05/12 01:35:32;;;;;;;3.63;2.15;;;12.00;99.90;;;;;;5006220;28;25054;-72
2022/05/12 01:37:58;;;;;;;9.15;2.20;;;11.90;99.90;;;;;;5004055;28;25062;-70
2022/05/12 01:40:25;;;;;;;7.65;2.42;;;11.90;99.90;;;;;;5004044;28;25142;-70
2022/05/12 01:42:51;;;;;;;6.15;2.25;;;12.00;99.90;;;;;;5008399;28;25063;-70
2022/05/12 01:45:17;;;;;;;8.35;2.50;;;12.00;99.90;;;;;;5007692;28;25056;-72
2022/05/12 01:47:44;;;;;;;6.90;2.63;;;12.00;99.90;;;;;;5009142;28;25160;-69
2022/05/12 01:50:11;;;;;;;5.53;2.33;;;12.00;99.90;;;;;;5006509;28;25059;-73
2022/05/12 01:52:39;;;;;;;4.90;2.40;;;11.90;99.90;;;;;;5006437;28;25068;-69
2022/05/12 01:55:05;;;;;;;6.15;2.22;;;11.80;99.90;;;;;;5007519;28;25068;-69
2022/05/12 01:57:30;;;;;;;11.10;2.60;;;11.80;99.90;;;;;;5008078;28;25055;-71
2022/05/12 01:59:56;;;;;;;8.02;2.63;;;11.80;99.90;;;;;;5008658;28;25146;-72
2022/05/12 02:02:23;;;;;;;9.05;3.10;;;11.80;99.90;;;;;;5008286;28;25076;-71
2022/05/12 02:04:49;;;;;;;5.95;2.22;;;11.80;99.90;;;;;;5006943;28;25077;-70
2022/05/12 02:07:15;;;;;;;10.55;2.85;;;11.80;99.90;;;;;;5008532;28;25071;-71
2022/05/12 02:09:41;;;;;;;8.90;2.72;;;11.80;99.90;;;;;;5009129;28;25067;-71
2022/05/12 02:12:08;;;;;;;13.15;2.90;;;11.80;99.90;;;;;;5009481;28;25077;-70
2022/05/12 02:14:34;;;;;;;5.97;2.20;;;11.80;99.90;;;;;;5008650;28;25113;-70
2022/05/12 02:17:00;;;;;;;6.93;2.65;;;11.80;99.90;;;;;;5022422;28;25154;-70
2022/05/12 02:19:27;;;;;;;7.88;2.90;;;11.80;99.90;;;;;;5008382;28;25081;-72
2022/05/12 02:21:54;;;;;;;8.48;2.53;;;11.70;99.90;;;;;;5007807;28;25155;-70
2022/05/12 02:24:20;;;;;;;11.55;2.65;;;11.70;99.90;;;;;;5008725;28;25092;-71
2022/05/12 02:26:46;;;;;;;6.32;2.38;;;11.70;99.90;;;;;;5008793;28;25091;-71
2022/05/12 02:29:12;;;;;;;10.13;2.85;;;11.70;99.90;;;;;;5007689;28;25139;-71
2022/05/12 02:31:37;;;;;;;6.18;2.85;;;11.60;99.90;;;;;;5009292;28;25068;-70
2022/05/12 02:34:03;;;;;;;9.68;2.88;;;11.60;99.90;;;;;;5010724;28;25165;-72
2022/05/12 02:36:29;;;;;;;7.28;3.17;;;11.60;99.90;;;;;;5010950;28;25155;-74
2022/05/12 02:38:54;;;;;;;8.55;3.13;;;11.60;99.90;;;;;;5007716;28;25165;-73
2022/05/12 02:41:20;;;;;;;10.40;3.05;;;11.60;99.90;;;;;;5005390;28;25107;-71
2022/05/12 02:43:45;;;;;;;9.80;3.83;;;11.50;99.90;;;;;;5005088;28;25094;-72
2022/05/12 02:46:13;;;;;;;9.30;3.75;;;11.50;99.90;;;;;;5009401;28;25066;-70
2022/05/12 02:48:41;;;;;;;12.88;3.97;;;11.60;99.90;;;;;;5006077;28;25069;-72
2022/05/12 02:51:08;;;;;;;13.02;4.65;;;11.60;99.90;;;;;;5006355;28;25158;-71
2022/05/12 02:53:34;;;;;;;11.07;4.22;;;11.60;99.90;;;;;;5004412;28;25177;-70
2022/05/12 02:56:00;;;;;;;14.10;4.32;;;11.60;99.90;;;;;;5006668;28;25139;-71
2022/05/12 02:58:27;;;;;;;10.77;4.30;;;11.50;99.90;;;;;;5005089;28;25067;-70
2022/05/12 03:00:53;;;;;;;16.15;4.60;;;11.50;99.90;;;;;;5006501;28;25077;-72
2022/05/12 03:03:19;;;;;;;13.30;4.55;;;11.50;99.90;;;;;;5004432;28;25064;-69
2022/05/12 03:05:44;;;;;;;15.32;4.70;;;11.60;99.90;;;;;;5005333;28;25100;-70
2022/05/12 03:08:10;;;;;;;10.38;4.70;;;11.60;99.90;;;;;;5005872;28;25304;-70
2022/05/12 03:10:37;;;;;;;15.20;5.53;;;11.60;99.90;;;;;;5005807;28;25099;-72
2022/05/12 03:13:03;;;;;;;13.15;5.57;;;11.70;99.90;;;;;;5008274;28;25075;-70
2022/05/12 03:15:29;;;;;;;15.95;5.60;;;11.70;99.90;;;;;;5006278;28;25101;-70
2022/05/12 03:17:55;;;;;;;23.45;5.25;;;11.70;99.90;;;;;;5006367;28;25091;-70
2022/05/12 03:20:24;;;;;;;14.50;6.20;;;11.70;99.90;;;;;;5009584;28;25077;-72
2022/05/12 03:22:50;;;;;;;17.85;5.82;;;11.70;99.90;;;;;;5011907;28;25081;-70
2022/05/12 03:25:17;;;;;;;20.70;6.68;;;11.60;99.90;;;;;;5014025;28;25066;-72
2022/05/12 03:27:43;;;;;;;15.80;5.80;;;11.60;99.90;;;;;;5009410;28;25060;-73
2022/05/12 03:30:13;;;;;;;18.58;6.70;;;11.60;99.90;;;;;;5010851;28;25077;-71
2022/05/12 03:32:40;;;;;;;21.52;7.10;;;11.50;99.90;;;;;;5010420;28;25115;-71
2022/05/12 03:35:06;;;;;;;14.63;5.80;;;11.50;99.90;;;;;;5010705;28;25116;-73
2022/05/12 03:37:33;;;;;;;13.73;6.15;;;11.50;99.90;;;;;;5010439;28;25061;-70
2022/05/12 03:39:59;;;;;;;18.80;6.47;;;11.60;99.90;;;;;;5011590;28;25449;-71
2022/05/12 03:42:24;;;;;;;16.00;6.82;;;11.50;99.90;;;;;;5012272;28;25105;-71
2022/05/12 03:44:50;;;;;;;21.98;6.95;;;11.60;99.90;;;;;;5027600;28;25059;-74
2022/05/12 03:47:22;;;;;;;16.27;6.72;;;11.60;99.90;;;;;;5009006;28;25061;-73
2022/05/12 03:49:49;;;;;;;18.55;7.13;;;11.60;99.90;;;;;;5024304;28;25101;-70
2022/05/12 03:52:15;;;;;;;22.90;7.20;;;11.60;99.90;;;;;;5008321;28;25057;-73
2022/05/12 03:54:42;;;;;;;15.57;8.10;;;11.60;99.90;;;;;;5012049;28;25115;-72
2022/05/12 03:57:08;;;;;;;17.80;7.43;;;11.60;99.90;;;;;;5011326;28;25075;-69
2022/05/12 03:59:34;;;;;;;15.15;7.38;;;11.60;99.90;;;;;;5011663;28;25070;-75
2022/05/12 04:02:00;;;;;;;20.45;7.57;;;11.60;99.90;;;;;;5013040;28;25072;-72
2022/05/12 04:04:25;;;;;;;23.40;8.50;;;11.60;99.90;;;;;;5011853;28;25109;-74
2022/05/12 04:06:51;;;;;;;18.98;8.35;;;11.60;99.90;;;;;;5015328;28;25125;-74
2022/05/12 04:09:16;;;;;;;16.58;7.38;;;11.60;99.90;;;;;;5013165;28;25073;-71
2022/05/12 04:11:42;;;;;;;20.38;6.78;;;11.70;99.90;;;;;;5012773;28;25126;-70
2022/05/12 04:14:08;;;;;;;18.02;7.43;;;11.70;99.90;;;;;;5013911;28;25097;-71
2022/05/12 04:16:36;;;;;;;21.33;8.13;;;11.70;99.90;;;;;;5010616;28;25106;-72
2022/05/12 04:19:03;;;;;;;15.52;7.10;;;11.70;99.90;;;;;;5011809;28;25064;-74
2022/05/12 04:21:31;;;;;;;14.23;7.55;;;11.80;99.90;;;;;;5009475;28;25105;-71
2022/05/12 04:23:56;;;;;;;20.90;7.85;;;11.80;99.90;;;;;;5007992;28;25099;-73
2022/05/12 04:26:22;;;;;;;16.23;7.20;;;11.80;99.90;;;;;;5012464;28;25076;-72
2022/05/12 04:28:48;;;;;;;15.18;7.13;;;11.80;99.90;;;;;;5011187;28;25141;-70
2022/05/12 04:31:13;;;;;;;15.88;7.63;;;11.80;99.90;;;;;;5010830;28;25088;-71
2022/05/12 04:36:23;;;;;;;18.23;7.22;;;11.90;99.90;;;;;;5009931;28;25050;-72
2022/05/12 04:38:49;;;;;;;16.92;7.90;;;11.90;99.90;;;;;;5011356;28;25060;-73
2022/05/12 04:41:16;;;;;;;13.45;6.93;;;11.90;99.90;;;;;;5012182;28;25088;-70
2022/05/12 04:43:42;;;;;;;16.83;7.68;;;12.00;99.90;;;;;;5009510;28;25046;-72
2022/05/12 04:46:07;;;;;;;19.90;7.70;;;12.00;99.90;;;;;;5008135;28;25070;-72
2022/05/12 04:48:33;;;;;;;18.30;7.40;;;12.00;99.90;;;;;;5007703;28;25175;-69
2022/05/12 04:50:59;;;;;;;16.98;6.65;;;12.00;99.90;;;;;;5007729;28;25059;-71
2022/05/12 04:53:25;;;;;;;22.77;7.20;;;12.00;99.90;;;;;;5004742;28;25064;-70
2022/05/12 04:55:51;;;;;;;18.25;7.93;;;12.00;99.90;;;;;;5007651;28;25097;-71
2022/05/12 04:58:17;;;;;;;19.52;7.15;;;12.10;99.90;;;;;;5007961;28;25092;-70
2022/05/12 05:00:43;;;;;;;13.70;6.78;;;12.10;99.90;;;;;;5005696;28;25075;-72
2022/05/12 05:03:10;;;;;;;17.58;7.80;;;12.10;99.90;;;;;;5005026;28;25087;-71
2022/05/12 05:05:37;;;;;;;14.55;6.07;;;12.10;99.90;;;;;;5005965;28;25139;-74
2022/05/12 05:08:04;;;;;;;14.05;7.13;;;12.10;99.90;;;;;;5006839;28;25064;-71
2022/05/12 05:10:32;;;;;;;11.80;6.60;;;12.10;99.90;;;;;;5004831;28;25064;-72
2022/05/12 05:12:58;;;;;;;17.80;7.00;;;12.10;99.90;;;;;;5003624;28;25133;-71
2022/05/12 05:15:25;;;;;;;15.95;6.78;;;12.20;99.90;;;;;;5005344;28;25176;-71
2022/05/12 05:17:51;;;;;;;12.70;6.00;;;12.20;99.90;;;;;;5009254;28;25061;-73
2022/05/12 05:20:20;;;;;;;15.38;6.35;;;12.30;99.90;;;;;;5010302;28;25077;-72
2022/05/12 05:22:46;;;;;;;17.83;6.47;;;12.30;99.90;;;;;;5007732;28;25049;-71
2022/05/12 05:25:12;;;;;;;13.63;5.93;;;12.40;99.90;;;;;;5017785;28;25061;-74
2022/05/12 05:27:38;;;;;;;14.02;5.30;;;12.40;99.90;;;;;;5023356;28;25066;-73
2022/05/12 05:30:07;;;;;;;18.38;5.60;;;12.30;99.90;;;;;;5022171;28;25055;-73
2022/05/12 05:32:32;;;;;;;17.48;6.20;;;12.40;99.90;;;;;;5020284;28;25065;-76
2022/05/12 05:34:58;;;;;;;11.48;5.65;;;12.30;99.90;;;;;;5020636;28;25068;-74
2022/05/12 05:37:24;;;;;;;13.75;5.32;;;12.40;99.90;;;;;;5019372;28;25135;-73
2022/05/12 05:39:49;;;;;;;10.48;5.00;;;12.50;99.90;;;;;;5011257;28;25062;-73
2022/05/12 05:42:17;;;;;;;10.38;4.53;;;12.50;99.90;;;;;;5007877;28;25059;-74
2022/05/12 05:44:42;;;;;;;16.85;5.95;;;12.60;99.90;;;;;;5007956;28;25118;-75
2022/05/12 05:47:08;;;;;;;13.20;5.00;;;12.70;99.90;;;;;;5012955;28;25130;-72
2022/05/12 05:49:36;;;;;;;6.88;4.55;;;12.70;98.70;;;;;;5017901;28;25141;-72
2022/05/12 05:54:46;;;;;;;13.52;5.03;;;12.80;89.20;;;;;;5013729;28;25071;-74
2022/05/12 05:57:12;;;;;;;9.73;4.72;;;12.70;82.60;;;;;;5017806;28;25054;-71
2022/05/12 05:59:38;;;;;;;14.38;4.60;;;12.90;80.20;;;;;;5019232;28;25101;-72
2022/05/12 06:02:05;;;;;;;9.00;4.80;;;12.90;75.30;;;;;;5018183;28;25100;-72
2022/05/12 06:04:30;;;;;;;10.30;3.88;;;13.00;62.80;;;;;;5015666;28;25072;-73
2022/05/12 06:06:56;;;;;;;11.60;3.70;;;13.20;62.20;;;;;;5017153;28;24875;-71
2022/05/12 06:09:22;;;;;;;7.05;3.55;;;13.30;58.00;;;;;;5016146;28;25056;-75
2022/05/12 06:11:48;;;;;;;10.88;3.90;;;13.50;51.60;;;;;;5014567;28;25058;-73
2022/05/12 06:14:14;;;;;;;7.88;3.55;;;13.80;47.50;;;;;;5011848;28;25070;-71
2022/05/12 06:16:39;;;;;;;11.13;3.40;;;14.00;33.40;;;;;;5010668;28;25071;-71
2022/05/12 06:19:05;;;;;;;12.73;4.10;;;14.00;27.00;;;;;;5010375;28;25138;-72
2022/05/12 06:21:33;;;;;;;12.15;3.40;;;14.10;19.70;;;;;;5009548;28;25081;-70
2022/05/12 06:23:59;;;;;;;11.25;3.33;;;14.20;17.10;;;;;;5009630;28;25139;-72
2022/05/12 06:26:24;;;;;;;9.55;3.60;;;14.40;15.20;;;;;;5013502;28;25071;-74
2022/05/12 06:28:50;;;;;;;10.55;3.40;;;14.40;10.70;;;;;;5014783;28;25099;-72
2022/05/12 06:31:30;;;;;;;7.65;2.95;;;14.60;12.10;;;;;;5010178;28;25079;-71
2022/05/12 06:33:57;;;;;;;8.68;3.20;;;14.60;5.90;;;;;;5011291;28;25072;-74
2022/05/12 06:36:22;;;;;;;7.15;3.20;;;14.80;7.40;;;;;;5009001;28;25127;-71
2022/05/12 06:38:48;;;;;;;6.63;3.20;;;15.10;3.50;;;;;;5007243;28;25072;-72
2022/05/12 06:41:14;;;;;;;9.02;3.35;;;15.10;1.00;;;;;;5008625;28;25198;-71
2022/05/12 06:43:45;;;;;;;6.07;3.53;;;15.00;1.00;;;;;;5007671;28;25066;-75
2022/05/12 06:46:17;;;;;;;7.00;3.03;;;14.90;1.00;;;;;;5007756;28;25076;-71
2022/05/12 06:48:44;;;;;;;5.72;2.60;;;14.90;1.00;;;;;;5008636;28;25049;-73
2022/05/12 06:51:11;;;;;;;8.70;3.60;;;14.70;1.00;;;;;;5008935;28;25061;-72
2022/05/12 06:53:37;;;;;;;11.68;2.90;;;14.70;1.00;;;;;;5007151;28;25147;-73
2022/05/12 06:56:03;;;;;;;9.30;3.38;;;14.80;1.00;;;;;;5007951;28;25104;-70
2022/05/12 06:58:28;;;;;;;9.98;3.22;;;14.90;1.00;;;;;;5008935;28;25100;-74
2022/05/12 07:00:54;;;;;;;10.95;3.67;;;15.10;1.00;;;;;;5008589;28;25071;-72
2022/05/12 07:03:19;;;;;;;10.20;3.42;;;15.40;1.00;;;;;;5008653;28;25057;-73
2022/05/12 07:05:45;;;;;;;11.07;3.22;;;15.40;1.00;;;;;;5009521;28;25076;-73
2022/05/12 07:08:11;;;;;;;10.77;2.83;;;15.60;1.00;;;;;;5010206;28;25152;-74
2022/05/12 07:10:37;;;;;;;9.77;3.42;;;15.90;1.00;;;;;;5017774;28;25059;-70
2022/05/12 07:13:03;;;;;;;10.18;2.75;;;16.00;1.00;;;;;;5017478;28;25056;-71
2022/05/12 07:15:28;;;;;;;9.93;2.38;;;16.10;1.00;;;;;;5009577;28;25098;-73
2022/05/12 07:17:55;;;;;;;7.85;2.05;;;16.20;1.00;;;;;;5008280;28;25115;-70
2022/05/12 07:28:37;;;;;;;9.75;2.60;;;16.50;1.00;;;;;;5008697;28;25104;-72
2022/05/12 07:31:06;;;;;;;6.70;2.58;;;16.60;1.00;;;;;;5008746;28;25145;-72
2022/05/12 07:33:41;;;;;;;4.78;1.90;;;16.70;1.00;;;;;;5008103;28;25061;-69
2022/05/12 07:36:12;;;;;;;4.50;2.15;;;16.80;1.00;;;;;;5007979;28;25092;-74
2022/05/12 07:38:38;;;;;;;6.25;1.98;;;17.00;1.00;;;;;;5007499;28;25106;-72
2022/05/12 07:41:07;;;;;;;6.15;1.67;;;17.10;1.00;;;;;;5022387;28;25085;-72
2022/05/12 07:43:33;;;;;;;8.35;2.60;;;17.10;1.00;;;;;;5022861;28;25078;-70
2022/05/12 07:46:00;;;;;;;5.70;1.65;;;17.20;1.00;;;;;;5006959;28;25057;-72
2022/05/12 07:48:25;;;;;;;8.98;2.80;;;17.30;1.00;;;;;;5007511;28;25147;-72
2022/05/12 07:50:51;;;;;;;4.97;2.13;;;17.30;1.00;;;;;;5007539;28;25067;-72
2022/05/12 07:53:16;;;;;;;3.42;2.20;;;17.30;1.00;;;;;;5006558;28;25075;-71
2022/05/12 07:55:42;;;;;;;8.80;2.50;;;17.10;1.00;;;;;;5007489;28;25101;-73
2022/05/12 07:58:09;;;;;;;5.40;2.05;;;16.70;1.00;;;;;;5007577;28;25068;-71
2022/05/12 08:00:35;;;;;;;7.07;1.80;;;16.60;1.00;;;;;;5007242;28;25068;-75
2022/05/12 08:03:01;;;;;;;5.88;1.88;;;16.60;1.00;;;;;;5007365;28;25085;-73
2022/05/12 08:05:26;;;;;;;7.28;2.30;;;17.10;1.00;;;;;;5008097;28;25069;-74
2022/05/12 08:07:52;;;;;;;5.28;2.25;;;17.40;1.00;;;;;;5010237;28;24899;-71
2022/05/12 08:10:19;;;;;;;8.02;2.40;;;17.30;1.00;;;;;;5009849;28;25199;-73
2022/05/12 08:12:45;;;;;;;8.93;2.83;;;17.30;1.00;;;;;;5009023;28;25124;-74
2022/05/12 08:15:11;;;;;;;4.38;1.70;;;17.70;1.00;;;;;;5008941;28;25129;-74
2022/05/12 08:17:37;;;;;;;6.65;2.10;;;17.90;1.00;;;;;;5008619;28;25059;-76
2022/05/12 08:20:08;;;;;;;2.60;1.60;;;18.00;1.00;;;;;;5009257;28;25076;-75
2022/05/12 08:22:34;;;;;;;5.97;3.00;;;17.90;1.00;;;;;;5008778;28;25060;-75
2022/05/12 08:24:59;;;;;;;6.63;1.92;;;17.80;1.00;;;;;;5006425;28;25123;-72
2022/05/12 08:27:25;;;;;;;6.28;1.77;;;18.00;1.00;;;;;;5006097;28;25056;-72
2022/05/12 08:29:52;;;;;;;6.00;1.98;;;18.20;1.00;;;;;;5006772;28;25151;-70
2022/05/12 08:32:18;;;;;;;5.55;1.80;;;18.30;1.00;;;;;;5004839;28;25137;-73
2022/05/12 08:34:44;;;;;;;4.13;2.17;;;18.30;1.00;;;;;;5006997;28;25066;-74
2022/05/12 08:37:10;;;;;;;5.75;1.75;;;18.20;1.00;;;;;;5007217;28;25047;-74
2022/05/12 08:39:36;;;;;;;8.23;1.33;;;18.50;1.00;;;;;;5006116;28;25069;-75
2022/05/12 08:42:26;;;;;;;5.45;1.27;;;18.60;1.00;;;;;;5007461;28;25064;-75
2022/05/12 08:44:53;;;;;;;3.88;1.50;;;18.50;1.00;;;;;;5006563;28;25082;-71
2022/05/12 08:47:26;;;;;;;3.75;1.33;;;18.70;1.00;;;;;;5007602;28;25092;-75
2022/05/12 08:49:52;;;;;;;3.88;1.67;;;18.50;1.00;;;;;;5007500;28;25074;-73
2022/05/12 08:52:26;;;;;;;2.88;1.42;;;18.70;1.00;;;;;;5006602;28;25057;-76
2022/05/12 08:55:14;;;;;;;3.58;1.40;;;18.70;1.00;;;;;;5007597;28;25054;-75
2022/05/12 08:57:47;;;;;;;7.28;1.75;;;18.80;1.00;;;;;;4976345;28;25068;-74
2022/05/12 09:00:16;;;;;;;4.78;1.30;;;19.20;1.00;;;;;;5008030;28;25121;-74
2022/05/12 09:03:03;;;;;;;5.03;1.73;;;19.40;1.00;;;;;;5007655;28;25055;-74
2022/05/12 09:05:39;;;;;;;8.90;1.70;;;19.30;1.00;;;;;;5006726;28;25101;-75
2022/05/12 09:08:22;;;;;;;4.07;1.30;;;19.70;1.00;;;;;;5006894;28;25098;-74
2022/05/12 09:10:59;;;;;;;;;;;19.70;1.00;;;;;;5005931;28;25120;-73
2022/05/12 09:13:31;;;;;;;7.13;1.88;;;19.60;1.00;;;;;;5005627;28;25063;-74
2022/05/12 09:16:21;;;;;;;3.85;1.73;;;19.70;1.00;;;;;;5007388;28;25152;-74
2022/05/12 09:18:47;;;;;;;4.75;1.60;;;19.50;1.00;;;;;;5007330;28;25081;-72
2022/05/12 09:21:18;;;;;;;4.68;1.20;;;19.70;1.00;;;;;;5006026;28;25138;-75
2022/05/12 09:23:44;;;;;;;5.20;1.30;;;19.70;1.00;;;;;;5006634;28;25072;-69
2022/05/12 09:26:45;;;;;;;5.60;1.77;;;20.00;1.00;;;;;;5006863;28;25152;-75
2022/05/12 09:29:10;;;;;;;9.15;2.10;;;20.00;1.00;;;;;;5006770;28;25060;-76
2022/05/12 09:31:36;;;;;;;5.70;1.90;;;20.10;1.00;;;;;;5006020;28;25142;-73
2022/05/12 09:34:38;;;;;;;4.30;1.70;;;19.90;1.00;;;;;;5008149;28;25081;-72
2022/05/12 09:37:13;;;;;;;4.90;1.53;;;20.10;1.00;;;;;;5004779;28;25078;-72
2022/05/12 09:39:42;;;;;;;3.47;1.80;;;19.90;1.00;;;;;;5006460;28;25108;-73
2022/05/12 09:42:27;;;;;;;5.72;1.52;;;20.00;1.00;;;;;;5007069;28;25158;-71
2022/05/12 09:45:05;;;;;;;4.38;1.80;;;20.00;1.00;;;;;;5007043;28;25088;-76
2022/05/12 09:47:32;;;;;;;7.38;1.77;;;19.80;1.00;;;;;;5009334;28;25067;-72
2022/05/12 09:50:26;;;;;;;9.05;1.98;;;18.90;1.00;;;;;;5008532;28;25175;-74
2022/05/12 09:52:54;;;;;;;8.52;1.90;;;18.80;1.00;;;;;;5007561;28;25082;-72
2022/05/12 09:55:23;;;;;;;3.70;1.67;;;18.30;1.00;;;;;;5011717;28;25102;-72
2022/05/12 09:57:55;;;;;;;6.65;2.22;;;18.30;1.00;;;;;;5015498;28;25069;-71
2022/05/12 10:00:42;;;;;;;5.47;1.42;;;19.10;1.00;;;;;;5025564;28;25122;-71
2022/05/12 10:09:14;;;;;;;3.58;1.52;;;20.10;1.00;;;;;;5025441;28;25080;-71
2022/05/12 10:12:10;;;;;;;5.40;1.85;;;20.10;1.00;;;;;;5027979;28;25061;-72
2022/05/12 10:14:56;;;;;;;4.30;1.20;;;20.40;1.00;;;;;;5027647;28;25060;-71
2022/05/12 10:17:33;;;;;;;6.13;1.88;;;20.20;1.00;;;;;;5023660;28;25057;-75
2022/05/12 10:20:11;;;;;;;5.65;1.48;;;19.30;1.00;;;;;;5021460;28;25075;-74
2022/05/12 10:22:52;;;;;;;3.35;1.50;;;19.20;1.00;;;;;;5010635;28;25088;-73
2022/05/12 10:25:31;;;;;;;3.05;1.35;;;19.40;1.00;;;;;;5011172;28;25169;-72
2022/05/12 10:28:17;;;;;;;2.70;1.10;;;20.00;1.00;;;;;;5010584;28;25078;-73
2022/05/12 10:31:08;;;;;;;3.97;1.20;;;20.00;1.00;;;;;;5010756;28;25063;-75
2022/05/12 10:34:04;;;;;;;2.95;1.27;;;19.70;1.00;;;;;;5009771;28;25047;-73
2022/05/12 10:36:33;;;;;;;3.70;0.98;;;19.70;1.00;;;;;;5010636;28;25098;-72
2022/05/12 10:39:12;;;;;;;6.22;1.63;;;19.70;1.00;;;;;;5007951;28;25074;-73
2022/05/12 10:41:49;;;;;;;4.15;1.17;;;19.70;1.00;;;;;;5008669;28;25044;-74
2022/05/12 10:44:37;;;;;;;1.83;0.85;;;20.00;1.00;;;;;;5010324;28;25099;-77
2022/05/12 10:47:35;;;;;;;7.40;2.13;;;19.70;1.00;;;;;;5010402;28;25058;-76
2022/05/12 10:50:20;;;;;;;5.57;1.20;;;19.00;1.00;;;;;;5006666;28;25080;-74
2022/05/12 10:52:49;;;;;;;5.72;1.30;;;19.30;1.00;;;;;;5009091;28;25058;-74
2022/05/12 10:55:18;;;;;;;4.68;1.38;;;19.60;1.00;;;;;;5009034;28;25073;-74
2022/05/12 10:57:44;;;;;;;3.55;1.35;;;19.50;1.00;;;;;;5010786;28;25062;-75
2022/05/12 11:00:13;;;;;;;4.10;1.20;;;19.30;1.00;;;;;;5010023;28;25046;-77
2022/05/12 11:02:45;;;;;;;5.68;1.30;;;19.40;1.00;;;;;;5010683;28;25057;-72
2022/05/12 11:05:32;;;;;;;5.07;1.23;;;19.60;1.00;;;;;;5008891;28;25084;-76
2022/05/12 11:08:07;;;;;;;2.90;1.00;;;19.90;1.00;;;;;;5008670;28;25103;-76
2022/05/12 11:10:53;;;;;;;3.83;1.20;;;20.20;1.00;;;;;;5008223;28;25081;-73
2022/05/12 11:13:38;;;;;;;4.00;1.17;;;20.20;1.00;;;;;;5009303;28;25088;-75
2022/05/12 11:16:11;;;;;;;3.10;1.17;;;20.50;1.00;;;;;;5011850;28;25073;-72
2022/05/12 11:18:51;;;;;;;3.03;1.25;;;20.30;1.00;;;;;;5010590;28;25073;-74
2022/05/12 11:21:25;;;;;;;6.60;1.17;;;20.90;1.00;;;;;;5011380;28;25104;-72
2022/05/12 11:24:10;;;;;;;3.80;1.10;;;21.30;1.00;;;;;;5012219;28;25125;-72
2022/05/12 11:26:43;;;;;;;2.88;0.93;;;21.40;1.00;;;;;;5012430;28;25178;-75
2022/05/12 11:32:36;;;;;;;4.35;1.60;;;21.30;1.00;;;;;;5012125;28;25121;-73
2022/05/12 11:35:18;;;;;;;4.32;1.48;;;21.50;1.00;;;;;;5011287;28;25060;-74
2022/05/12 11:37:44;;;;;;;;;;;21.20;1.00;;;;;;5013158;28;25113;-73
2022/05/12 11:40:48;;;;;;;7.75;2.40;;;20.50;1.00;;;;;;5010472;28;24102;-75
2022/05/12 11:46:41;;;;;;;3.85;1.55;;;20.30;1.00;;;;;;5014884;28;25089;-73
2022/05/12 11:49:25;;;;;;;3.40;1.65;;;20.50;1.00;;;;;;5011539;28;25166;-73
2022/05/12 11:52:03;;;;;;;3.53;1.80;;;20.50;1.00;;;;;;5013567;28;25065;-73
2022/05/12 11:54:37;;;;;;;3.03;1.55;;;20.70;1.00;;;;;;5011954;28;25077;-75
2022/05/12 11:57:28;;;;;;;4.50;1.33;;;20.60;1.00;;;;;;5011191;28;25126;-71
2022/05/12 11:59:57;;;;;;;3.95;1.38;;;20.10;1.00;;;;;;4995651;28;25114;-74
2022/05/12 12:02:28;;;;;;;3.90;1.70;;;20.00;1.00;;;;;;5010952;28;25072;-72
2022/05/12 12:04:59;;;;;;;6.67;1.60;;;20.20;1.00;;;;;;5008390;28;25072;-75
2022/05/12 12:07:30;;;;;;;4.77;2.00;;;20.10;1.00;;;;;;5008873;28;25047;-75
2022/05/12 12:10:04;;;;;;;4.18;1.50;;;20.00;1.00;;;;;;5012713;28;25051;-73
2022/05/12 12:12:45;;;;;;;6.20;1.83;;;20.50;1.00;;;;;;5009391;28;25154;-74
2022/05/12 12:15:30;;;;;;;4.15;1.42;;;21.00;1.00;;;;;;5010076;28;25164;-74
2022/05/12 12:17:57;;;;;;;5.70;1.67;;;21.10;1.00;;;;;;5009344;28;25060;-73
2022/05/12 12:20:29;;;;;;;4.63;1.45;;;20.60;1.00;;;;;;5009841;28;25079;-74
2022/05/12 12:22:57;;;;;;;3.38;1.45;;;20.60;1.00;;;;;;5013913;28;25066;-80
2022/05/12 12:25:29;;;;;;;3.17;1.17;;;20.70;1.00;;;;;;5010861;28;25144;-74
2022/05/12 12:28:07;;;;;;;5.90;1.70;;;20.80;1.00;;;;;;5008945;28;25186;-70
2022/05/12 12:30:56;;;;;;;3.40;1.50;;;21.00;1.00;;;;;;5009821;28;25079;-72
2022/05/12 12:33:24;;;;;;;5.47;1.77;;;20.80;1.00;;;;;;5010207;28;25151;-71
2022/05/12 12:36:05;;;;;;;3.08;1.50;;;20.50;1.00;;;;;;5009496;28;25057;-74
2022/05/12 12:38:48;;;;;;;3.58;1.60;;;20.90;1.00;;;;;;5009682;28;25068;-73
2022/05/12 12:41:15;;;;;;;4.30;1.42;;;20.70;1.00;;;;;;5007880;28;25159;-73
2022/05/12 12:43:47;;;;;;;2.97;1.67;;;20.60;1.00;;;;;;5007260;28;25058;-70
2022/05/12 12:46:26;;;;;;;6.03;2.05;;;20.60;1.00;;;;;;5009356;28;25073;-75
2022/05/12 12:48:59;;;;;;;5.57;1.60;;;20.90;1.00;;;;;;5011057;28;25074;-75
2022/05/12 12:51:35;;;;;;;4.32;1.48;;;21.10;1.00;;;;;;5008507;28;25139;-73
2022/05/12 12:57:24;;;;;;;3.17;1.63;;;21.60;1.00;;;;;;5013904;28;25072;-74
2022/05/12 12:59:58;;;;;;;5.40;2.20;;;20.70;1.00;;;;;;5010476;28;25106;-75
2022/05/12 13:02:42;;;;;;;5.95;1.77;;;20.50;1.00;;;;;;5011557;28;25056;-74
2022/05/12 13:05:12;;;;;;;6.85;1.55;;;20.70;1.00;;;;;;5009822;28;25070;-74
2022/05/12 13:07:40;;;;;;;4.50;1.98;;;20.50;1.00;;;;;;5010545;28;25142;-76
2022/05/12 13:10:10;;;;;;;3.88;1.52;;;20.40;1.00;;;;;;5008902;28;25136;-73
2022/05/12 13:12:37;;;;;;;5.68;1.85;;;20.80;1.00;;;;;;5012147;28;25072;-72
2022/05/12 13:15:14;;;;;;;5.97;1.98;;;20.70;1.00;;;;;;5023620;28;25104;-73
2022/05/12 13:17:48;;;;;;;7.70;1.77;;;20.90;1.00;;;;;;5017384;28;25063;-73
2022/05/12 13:20:17;;;;;;;5.97;2.17;;;20.90;1.00;;;;;;5016020;28;25087;-74
2022/05/12 13:22:48;;;;;;;2.67;1.60;;;20.90;1.00;;;;;;5014390;28;25096;-74
2022/05/12 13:25:19;;;;;;;6.40;2.00;;;21.10;1.00;;;;;;5031017;28;25055;-72
2022/05/12 13:27:46;;;;;;;3.80;1.65;;;20.90;1.00;;;;;;5025412;28;25099;-74
2022/05/12 13:30:16;;;;;;;2.78;1.50;;;21.10;1.00;;;;;;5024589;28;25064;-69
2022/05/12 13:32:47;;;;;;;2.88;1.55;;;21.10;1.00;;;;;;5022226;28;25047;-73
2022/05/12 13:35:16;;;;;;;3.15;1.67;;;20.90;1.00;;;;;;5021798;28;25084;-75